sensor_id;sensor_type;location;lat;lon;timestamp;P1;durP1;ratioP1;P2;durP2;ratioP2
64598;SDS011;51008;51.504;11.548;2022-07-24T00:01:50;4.10;;;2.28;;
64598;SDS011;51008;51.504;11.548;2022-07-24T00:06:51;5.75;;;2.08;;
64598;SDS011;51008;51.504;11.548;2022-07-24T00:11:52;4.80;;;1.92;;
64598;SDS011;51008;51.504;11.548;2022-07-24T00:16:53;3.10;;;2.00;;
64598;SDS011;51008;51.504;11.548;2022-07-24T00:21:54;5.13;;;1.92;;
64598;SDS011;51008;51.504;11.548;2022-07-24T00:26:55;2.42;;;1.70;;
64598;SDS011;51008;51.504;11.548;2022-07-24T00:31:56;7.18;;;1.95;;
64598;SDS011;51008;51.504;11.548;2022-07-24T00:36:57;2.85;;;1.80;;
64598;SDS011;51008;51.504;11.548;2022-07-24T00:41:58;5.75;;;2.00;;
64598;SDS011;51008;51.504;11.548;2022-07-24T00:46:59;2.58;;;1.80;;
64598;SDS011;51008;51.504;11.548;2022-07-24T00:52:00;6.18;;;2.17;;
64598;SDS011;51008;51.504;11.548;2022-07-24T00:57:01;3.03;;;2.00;;
64598;SDS011;51008;51.504;11.548;2022-07-24T01:02:02;3.15;;;2.00;;
64598;SDS011;51008;51.504;11.548;2022-07-24T01:07:03;3.53;;;1.95;;
64598;SDS011;51008;51.504;11.548;2022-07-24T01:12:05;5.43;;;1.73;;
64598;SDS011;51008;51.504;11.548;2022-07-24T01:17:06;3.63;;;1.90;;
64598;SDS011;51008;51.504;11.548;2022-07-24T01:22:07;2.83;;;1.70;;
64598;SDS011;51008;51.504;11.548;2022-07-24T01:27:08;7.25;;;1.80;;
64598;SDS011;51008;51.504;11.548;2022-07-24T01:32:09;4.80;;;1.95;;
64598;SDS011;51008;51.504;11.548;2022-07-24T01:37:10;2.28;;;1.52;;
64598;SDS011;51008;51.504;11.548;2022-07-24T01:42:11;3.30;;;1.90;;
64598;SDS011;51008;51.504;11.548;2022-07-24T01:47:12;5.63;;;2.45;;
64598;SDS011;51008;51.504;11.548;2022-07-24T01:52:13;5.07;;;1.90;;
64598;SDS011;51008;51.504;11.548;2022-07-24T01:57:14;3.13;;;1.80;;
64598;SDS011;51008;51.504;11.548;2022-07-24T02:02:15;4.95;;;2.05;;
64598;SDS011;51008;51.504;11.548;2022-07-24T02:07:16;2.83;;;1.77;;
64598;SDS011;51008;51.504;11.548;2022-07-24T02:12:17;3.83;;;1.92;;
64598;SDS011;51008;51.504;11.548;2022-07-24T02:17:18;2.70;;;1.80;;
64598;SDS011;51008;51.504;11.548;2022-07-24T02:22:19;5.05;;;2.08;;
64598;SDS011;51008;51.504;11.548;2022-07-24T02:27:20;5.57;;;1.70;;
64598;SDS011;51008;51.504;11.548;2022-07-24T02:32:21;1.98;;;1.65;;
64598;SDS011;51008;51.504;11.548;2022-07-24T02:37:24;3.40;;;1.80;;
64598;SDS011;51008;51.504;11.548;2022-07-24T02:42:25;4.93;;;1.80;;
64598;SDS011;51008;51.504;11.548;2022-07-24T02:47:26;2.42;;;1.80;;
64598;SDS011;51008;51.504;11.548;2022-07-24T02:52:27;6.63;;;1.98;;
64598;SDS011;51008;51.504;11.548;2022-07-24T02:57:28;6.07;;;1.98;;
64598;SDS011;51008;51.504;11.548;2022-07-24T03:02:29;3.85;;;1.80;;
64598;SDS011;51008;51.504;11.548;2022-07-24T03:07:30;2.17;;;1.65;;
64598;SDS011;51008;51.504;11.548;2022-07-24T03:12:32;4.05;;;2.05;;
64598;SDS011;51008;51.504;11.548;2022-07-24T03:17:33;2.22;;;1.88;;
64598;SDS011;51008;51.504;11.548;2022-07-24T03:22:34;7.75;;;2.05;;
64598;SDS011;51008;51.504;11.548;2022-07-24T03:27:34;3.63;;;2.13;;
64598;SDS011;51008;51.504;11.548;2022-07-24T03:32:36;3.15;;;1.90;;
64598;SDS011;51008;51.504;11.548;2022-07-24T03:37:37;5.22;;;2.70;;
64598;SDS011;51008;51.504;11.548;2022-07-24T03:42:38;8.95;;;2.40;;
64598;SDS011;51008;51.504;11.548;2022-07-24T03:47:38;3.78;;;2.10;;
64598;SDS011;51008;51.504;11.548;2022-07-24T03:52:39;2.95;;;2.13;;
64598;SDS011;51008;51.504;11.548;2022-07-24T03:57:40;7.43;;;2.30;;
64598;SDS011;51008;51.504;11.548;2022-07-24T04:02:41;6.95;;;2.60;;
64598;SDS011;51008;51.504;11.548;2022-07-24T04:07:42;4.45;;;2.08;;
64598;SDS011;51008;51.504;11.548;2022-07-24T04:12:43;4.32;;;2.05;;
64598;SDS011;51008;51.504;11.548;2022-07-24T04:17:44;4.18;;;2.20;;
64598;SDS011;51008;51.504;11.548;2022-07-24T04:22:45;3.92;;;2.13;;
64598;SDS011;51008;51.504;11.548;2022-07-24T04:27:46;3.05;;;1.95;;
64598;SDS011;51008;51.504;11.548;2022-07-24T04:32:47;4.05;;;2.13;;
64598;SDS011;51008;51.504;11.548;2022-07-24T04:37:48;5.03;;;2.00;;
64598;SDS011;51008;51.504;11.548;2022-07-24T04:42:49;3.55;;;2.20;;
64598;SDS011;51008;51.504;11.548;2022-07-24T04:47:50;3.95;;;1.92;;
64598;SDS011;51008;51.504;11.548;2022-07-24T04:52:51;4.45;;;2.40;;
64598;SDS011;51008;51.504;11.548;2022-07-24T04:57:52;2.60;;;2.00;;
64598;SDS011;51008;51.504;11.548;2022-07-24T05:02:53;4.22;;;2.30;;
64598;SDS011;51008;51.504;11.548;2022-07-24T05:07:54;5.00;;;2.17;;
64598;SDS011;51008;51.504;11.548;2022-07-24T05:12:55;3.38;;;2.30;;
64598;SDS011;51008;51.504;11.548;2022-07-24T05:17:56;4.57;;;2.00;;
64598;SDS011;51008;51.504;11.548;2022-07-24T05:22:57;5.53;;;2.20;;
64598;SDS011;51008;51.504;11.548;2022-07-24T05:27:58;11.65;;;2.00;;
64598;SDS011;51008;51.504;11.548;2022-07-24T05:32:59;3.75;;;1.90;;
64598;SDS011;51008;51.504;11.548;2022-07-24T05:38:00;3.28;;;1.92;;
64598;SDS011;51008;51.504;11.548;2022-07-24T05:43:01;4.88;;;2.10;;
64598;SDS011;51008;51.504;11.548;2022-07-24T05:48:02;4.63;;;2.22;;
64598;SDS011;51008;51.504;11.548;2022-07-24T05:53:03;4.55;;;2.13;;
64598;SDS011;51008;51.504;11.548;2022-07-24T05:58:04;4.35;;;2.17;;
64598;SDS011;51008;51.504;11.548;2022-07-24T06:03:05;4.80;;;2.03;;
64598;SDS011;51008;51.504;11.548;2022-07-24T06:08:06;5.05;;;2.00;;
64598;SDS011;51008;51.504;11.548;2022-07-24T06:13:07;6.32;;;1.83;;
64598;SDS011;51008;51.504;11.548;2022-07-24T06:18:08;11.45;;;2.10;;
64598;SDS011;51008;51.504;11.548;2022-07-24T06:23:09;4.65;;;1.80;;
64598;SDS011;51008;51.504;11.548;2022-07-24T06:28:10;3.88;;;1.70;;
64598;SDS011;51008;51.504;11.548;2022-07-24T06:33:11;10.23;;;2.88;;
64598;SDS011;51008;51.504;11.548;2022-07-24T06:38:12;4.85;;;2.00;;
64598;SDS011;51008;51.504;11.548;2022-07-24T06:43:12;4.50;;;1.80;;
64598;SDS011;51008;51.504;11.548;2022-07-24T06:48:13;4.38;;;2.30;;
64598;SDS011;51008;51.504;11.548;2022-07-24T06:53:14;2.50;;;1.67;;
64598;SDS011;51008;51.504;11.548;2022-07-24T06:58:15;3.45;;;1.60;;
64598;SDS011;51008;51.504;11.548;2022-07-24T07:03:16;7.97;;;2.10;;
64598;SDS011;51008;51.504;11.548;2022-07-24T07:08:18;5.10;;;1.70;;
64598;SDS011;51008;51.504;11.548;2022-07-24T07:13:18;8.10;;;1.83;;
64598;SDS011;51008;51.504;11.548;2022-07-24T07:18:19;2.47;;;1.58;;
64598;SDS011;51008;51.504;11.548;2022-07-24T07:23:23;4.53;;;1.77;;
64598;SDS011;51008;51.504;11.548;2022-07-24T07:28:24;4.55;;;1.67;;
64598;SDS011;51008;51.504;11.548;2022-07-24T07:33:25;3.28;;;1.60;;
64598;SDS011;51008;51.504;11.548;2022-07-24T07:38:26;3.15;;;1.85;;
64598;SDS011;51008;51.504;11.548;2022-07-24T07:43:27;5.80;;;1.80;;
64598;SDS011;51008;51.504;11.548;2022-07-24T07:48:28;7.97;;;1.90;;
64598;SDS011;51008;51.504;11.548;2022-07-24T07:53:29;8.18;;;1.85;;
64598;SDS011;51008;51.504;11.548;2022-07-24T07:58:30;4.70;;;1.90;;
64598;SDS011;51008;51.504;11.548;2022-07-24T08:03:31;4.40;;;1.85;;
64598;SDS011;51008;51.504;11.548;2022-07-24T08:08:32;5.43;;;1.92;;
64598;SDS011;51008;51.504;11.548;2022-07-24T08:13:33;4.07;;;1.80;;
64598;SDS011;51008;51.504;11.548;2022-07-24T08:18:34;7.20;;;1.85;;
64598;SDS011;51008;51.504;11.548;2022-07-24T08:23:35;3.15;;;1.60;;
64598;SDS011;51008;51.504;11.548;2022-07-24T08:28:36;5.88;;;2.00;;
64598;SDS011;51008;51.504;11.548;2022-07-24T08:33:37;8.77;;;2.03;;
64598;SDS011;51008;51.504;11.548;2022-07-24T08:38:38;3.67;;;2.13;;
64598;SDS011;51008;51.504;11.548;2022-07-24T08:43:39;4.88;;;2.17;;
64598;SDS011;51008;51.504;11.548;2022-07-24T08:48:42;3.53;;;2.17;;
64598;SDS011;51008;51.504;11.548;2022-07-24T08:53:44;6.93;;;2.45;;
64598;SDS011;51008;51.504;11.548;2022-07-24T08:58:45;10.85;;;2.70;;
64598;SDS011;51008;51.504;11.548;2022-07-24T09:03:46;5.70;;;2.03;;
64598;SDS011;51008;51.504;11.548;2022-07-24T09:08:58;4.37;;;2.20;;
64598;SDS011;51008;51.504;11.548;2022-07-24T09:14:00;5.72;;;2.42;;
64598;SDS011;51008;51.504;11.548;2022-07-24T09:19:03;4.47;;;2.50;;
64598;SDS011;51008;51.504;11.548;2022-07-24T09:24:17;5.60;;;2.28;;
64598;SDS011;51008;51.504;11.548;2022-07-24T09:29:20;4.60;;;2.75;;
64598;SDS011;51008;51.504;11.548;2022-07-24T09:34:23;5.28;;;2.55;;
64598;SDS011;51008;51.504;11.548;2022-07-24T09:39:26;5.20;;;2.80;;
64598;SDS011;51008;51.504;11.548;2022-07-24T09:44:28;9.07;;;2.67;;
64598;SDS011;51008;51.504;11.548;2022-07-24T09:49:30;3.95;;;3.00;;
64598;SDS011;51008;51.504;11.548;2022-07-24T09:54:32;6.20;;;2.95;;
64598;SDS011;51008;51.504;11.548;2022-07-24T09:59:35;6.88;;;3.08;;
64598;SDS011;51008;51.504;11.548;2022-07-24T10:04:37;5.68;;;2.90;;
64598;SDS011;51008;51.504;11.548;2022-07-24T10:09:40;5.00;;;2.88;;
64598;SDS011;51008;51.504;11.548;2022-07-24T10:14:44;6.68;;;3.58;;
64598;SDS011;51008;51.504;11.548;2022-07-24T10:19:47;8.43;;;3.22;;
64598;SDS011;51008;51.504;11.548;2022-07-24T10:24:57;4.75;;;2.95;;
64598;SDS011;51008;51.504;11.548;2022-07-24T10:30:09;6.32;;;3.40;;
64598;SDS011;51008;51.504;11.548;2022-07-24T10:35:13;6.13;;;3.08;;
64598;SDS011;51008;51.504;11.548;2022-07-24T10:40:22;4.72;;;3.25;;
64598;SDS011;51008;51.504;11.548;2022-07-24T10:45:28;5.90;;;3.63;;
64598;SDS011;51008;51.504;11.548;2022-07-24T10:56:14;7.57;;;3.58;;
64598;SDS011;51008;51.504;11.548;2022-07-24T11:01:35;7.18;;;3.40;;
64598;SDS011;51008;51.504;11.548;2022-07-24T11:16:52;7.82;;;3.40;;
64598;SDS011;51008;51.504;11.548;2022-07-24T11:22:01;4.80;;;2.83;;
64598;SDS011;51008;51.504;11.548;2022-07-24T11:27:05;6.03;;;3.03;;
64598;SDS011;51008;51.504;11.548;2022-07-24T11:32:08;5.28;;;2.95;;
64598;SDS011;51008;51.504;11.548;2022-07-24T11:37:11;3.83;;;2.80;;
64598;SDS011;51008;51.504;11.548;2022-07-24T11:42:13;5.05;;;2.95;;
64598;SDS011;51008;51.504;11.548;2022-07-24T11:47:17;5.45;;;2.97;;
64598;SDS011;51008;51.504;11.548;2022-07-24T11:52:22;6.80;;;3.00;;
64598;SDS011;51008;51.504;11.548;2022-07-24T11:57:35;5.45;;;2.90;;
64598;SDS011;51008;51.504;11.548;2022-07-24T12:02:47;8.68;;;3.13;;
64598;SDS011;51008;51.504;11.548;2022-07-24T12:07:51;5.75;;;2.72;;
64598;SDS011;51008;51.504;11.548;2022-07-24T12:12:52;6.03;;;2.90;;
64598;SDS011;51008;51.504;11.548;2022-07-24T12:18:02;4.80;;;2.83;;
64598;SDS011;51008;51.504;11.548;2022-07-24T12:23:06;5.88;;;2.85;;
64598;SDS011;51008;51.504;11.548;2022-07-24T12:28:15;7.05;;;2.83;;
64598;SDS011;51008;51.504;11.548;2022-07-24T12:38:24;7.45;;;3.05;;
64598;SDS011;51008;51.504;11.548;2022-07-24T12:43:29;5.05;;;2.70;;
64598;SDS011;51008;51.504;11.548;2022-07-24T12:48:30;4.47;;;3.00;;
64598;SDS011;51008;51.504;11.548;2022-07-24T12:53:32;3.97;;;2.65;;
64598;SDS011;51008;51.504;11.548;2022-07-24T12:58:51;5.50;;;2.80;;
64598;SDS011;51008;51.504;11.548;2022-07-24T13:04:00;5.63;;;2.88;;
64598;SDS011;51008;51.504;11.548;2022-07-24T13:09:03;4.93;;;2.80;;
64598;SDS011;51008;51.504;11.548;2022-07-24T13:14:05;4.28;;;2.60;;
64598;SDS011;51008;51.504;11.548;2022-07-24T13:19:07;6.32;;;2.60;;
64598;SDS011;51008;51.504;11.548;2022-07-24T13:24:09;6.60;;;2.75;;
64598;SDS011;51008;51.504;11.548;2022-07-24T13:29:12;3.83;;;2.53;;
64598;SDS011;51008;51.504;11.548;2022-07-24T13:34:13;3.70;;;2.33;;
64598;SDS011;51008;51.504;11.548;2022-07-24T13:39:15;5.53;;;2.67;;
64598;SDS011;51008;51.504;11.548;2022-07-24T13:44:16;4.28;;;2.78;;
64598;SDS011;51008;51.504;11.548;2022-07-24T13:49:17;5.80;;;2.70;;
64598;SDS011;51008;51.504;11.548;2022-07-24T13:54:18;8.47;;;3.20;;
64598;SDS011;51008;51.504;11.548;2022-07-24T13:59:19;8.20;;;2.97;;
64598;SDS011;51008;51.504;11.548;2022-07-24T14:04:20;3.47;;;2.47;;
64598;SDS011;51008;51.504;11.548;2022-07-24T14:09:21;3.20;;;2.37;;
64598;SDS011;51008;51.504;11.548;2022-07-24T14:19:23;9.38;;;2.70;;
64598;SDS011;51008;51.504;11.548;2022-07-24T14:24:24;4.03;;;2.55;;
64598;SDS011;51008;51.504;11.548;2022-07-24T14:29:25;12.15;;;2.60;;
64598;SDS011;51008;51.504;11.548;2022-07-24T14:34:26;5.53;;;2.70;;
64598;SDS011;51008;51.504;11.548;2022-07-24T14:39:27;6.83;;;2.60;;
64598;SDS011;51008;51.504;11.548;2022-07-24T14:44:28;7.10;;;2.90;;
64598;SDS011;51008;51.504;11.548;2022-07-24T14:49:29;3.60;;;2.47;;
64598;SDS011;51008;51.504;11.548;2022-07-24T14:54:30;5.23;;;2.60;;
64598;SDS011;51008;51.504;11.548;2022-07-24T14:59:31;5.23;;;2.53;;
64598;SDS011;51008;51.504;11.548;2022-07-24T15:04:32;6.23;;;3.00;;
64598;SDS011;51008;51.504;11.548;2022-07-24T15:09:33;4.43;;;2.60;;
64598;SDS011;51008;51.504;11.548;2022-07-24T15:14:33;5.47;;;2.60;;
64598;SDS011;51008;51.504;11.548;2022-07-24T15:19:34;3.53;;;2.33;;
64598;SDS011;51008;51.504;11.548;2022-07-24T15:24:35;12.77;;;2.53;;
64598;SDS011;51008;51.504;11.548;2022-07-24T15:29:36;3.43;;;2.53;;
64598;SDS011;51008;51.504;11.548;2022-07-24T15:34:37;5.43;;;2.40;;
64598;SDS011;51008;51.504;11.548;2022-07-24T15:39:38;3.87;;;2.70;;
64598;SDS011;51008;51.504;11.548;2022-07-24T15:44:39;5.87;;;2.60;;
64598;SDS011;51008;51.504;11.548;2022-07-24T15:49:40;5.27;;;2.33;;
64598;SDS011;51008;51.504;11.548;2022-07-24T15:54:41;4.03;;;2.60;;
64598;SDS011;51008;51.504;11.548;2022-07-24T15:59:42;5.23;;;2.63;;
64598;SDS011;51008;51.504;11.548;2022-07-24T16:04:43;5.80;;;2.40;;
64598;SDS011;51008;51.504;11.548;2022-07-24T16:09:44;3.30;;;2.53;;
64598;SDS011;51008;51.504;11.548;2022-07-24T16:14:46;6.63;;;2.63;;
64598;SDS011;51008;51.504;11.548;2022-07-24T16:19:47;3.67;;;2.40;;
64598;SDS011;51008;51.504;11.548;2022-07-24T16:24:48;4.57;;;2.47;;
64598;SDS011;51008;51.504;11.548;2022-07-24T16:29:49;4.97;;;2.23;;
64598;SDS011;51008;51.504;11.548;2022-07-24T16:34:50;4.67;;;2.97;;
64598;SDS011;51008;51.504;11.548;2022-07-24T16:39:51;8.50;;;2.60;;
64598;SDS011;51008;51.504;11.548;2022-07-24T16:44:52;3.97;;;2.60;;
64598;SDS011;51008;51.504;11.548;2022-07-24T16:49:53;5.17;;;2.50;;
64598;SDS011;51008;51.504;11.548;2022-07-24T16:54:54;4.13;;;2.63;;
64598;SDS011;51008;51.504;11.548;2022-07-24T16:59:55;7.93;;;3.10;;
64598;SDS011;51008;51.504;11.548;2022-07-24T17:04:56;5.43;;;2.57;;
64598;SDS011;51008;51.504;11.548;2022-07-24T17:09:57;4.30;;;2.83;;
64598;SDS011;51008;51.504;11.548;2022-07-24T17:14:58;4.67;;;2.90;;
64598;SDS011;51008;51.504;11.548;2022-07-24T17:19:58;6.05;;;3.35;;
64598;SDS011;51008;51.504;11.548;2022-07-24T17:24:59;3.70;;;2.67;;
64598;SDS011;51008;51.504;11.548;2022-07-24T17:30:01;6.68;;;2.78;;
64598;SDS011;51008;51.504;11.548;2022-07-24T17:35:04;4.82;;;2.53;;
64598;SDS011;51008;51.504;11.548;2022-07-24T17:40:05;6.10;;;2.75;;
64598;SDS011;51008;51.504;11.548;2022-07-24T17:45:07;7.13;;;2.80;;
64598;SDS011;51008;51.504;11.548;2022-07-24T17:50:08;5.18;;;2.78;;
64598;SDS011;51008;51.504;11.548;2022-07-24T17:55:10;7.35;;;2.58;;
64598;SDS011;51008;51.504;11.548;2022-07-24T18:00:11;4.13;;;2.37;;
64598;SDS011;51008;51.504;11.548;2022-07-24T18:05:13;4.93;;;2.77;;
64598;SDS011;51008;51.504;11.548;2022-07-24T18:10:14;3.47;;;2.55;;
64598;SDS011;51008;51.504;11.548;2022-07-24T18:15:15;5.60;;;2.90;;
64598;SDS011;51008;51.504;11.548;2022-07-24T18:20:16;5.15;;;2.70;;
64598;SDS011;51008;51.504;11.548;2022-07-24T18:25:17;7.10;;;2.70;;
64598;SDS011;51008;51.504;11.548;2022-07-24T18:30:18;3.60;;;2.70;;
64598;SDS011;51008;51.504;11.548;2022-07-24T18:35:19;3.45;;;2.60;;
64598;SDS011;51008;51.504;11.548;2022-07-24T18:40:20;22.85;;;3.40;;
64598;SDS011;51008;51.504;11.548;2022-07-24T18:45:21;8.00;;;2.90;;
64598;SDS011;51008;51.504;11.548;2022-07-24T18:50:22;5.53;;;2.85;;
64598;SDS011;51008;51.504;11.548;2022-07-24T18:55:23;6.68;;;3.13;;
64598;SDS011;51008;51.504;11.548;2022-07-24T19:00:24;5.13;;;3.28;;
64598;SDS011;51008;51.504;11.548;2022-07-24T19:05:25;3.70;;;2.70;;
64598;SDS011;51008;51.504;11.548;2022-07-24T19:10:26;10.85;;;3.33;;
64598;SDS011;51008;51.504;11.548;2022-07-24T19:15:27;36.40;;;3.58;;
64598;SDS011;51008;51.504;11.548;2022-07-24T19:20:28;4.43;;;2.75;;
64598;SDS011;51008;51.504;11.548;2022-07-24T19:25:29;8.00;;;2.88;;
64598;SDS011;51008;51.504;11.548;2022-07-24T19:30:30;7.28;;;3.30;;
64598;SDS011;51008;51.504;11.548;2022-07-24T19:35:31;11.20;;;3.40;;
64598;SDS011;51008;51.504;11.548;2022-07-24T19:40:32;7.70;;;3.13;;
64598;SDS011;51008;51.504;11.548;2022-07-24T19:45:33;5.65;;;3.08;;
64598;SDS011;51008;51.504;11.548;2022-07-24T19:50:37;5.45;;;2.80;;
64598;SDS011;51008;51.504;11.548;2022-07-24T19:55:38;5.00;;;2.75;;
64598;SDS011;51008;51.504;11.548;2022-07-24T20:00:39;10.55;;;3.30;;
64598;SDS011;51008;51.504;11.548;2022-07-24T20:05:40;6.70;;;3.15;;
64598;SDS011;51008;51.504;11.548;2022-07-24T20:10:41;7.22;;;4.80;;
64598;SDS011;51008;51.504;11.548;2022-07-24T20:15:42;10.32;;;5.85;;
64598;SDS011;51008;51.504;11.548;2022-07-24T20:20:43;5.18;;;3.47;;
64598;SDS011;51008;51.504;11.548;2022-07-24T20:25:44;7.10;;;3.70;;
64598;SDS011;51008;51.504;11.548;2022-07-24T20:30:45;7.95;;;3.60;;
64598;SDS011;51008;51.504;11.548;2022-07-24T20:35:45;5.40;;;3.28;;
64598;SDS011;51008;51.504;11.548;2022-07-24T20:40:47;7.93;;;3.20;;
64598;SDS011;51008;51.504;11.548;2022-07-24T20:45:47;6.00;;;3.35;;
64598;SDS011;51008;51.504;11.548;2022-07-24T20:50:48;5.03;;;3.22;;
64598;SDS011;51008;51.504;11.548;2022-07-24T20:55:49;6.90;;;3.33;;
64598;SDS011;51008;51.504;11.548;2022-07-24T21:00:50;9.65;;;3.45;;
64598;SDS011;51008;51.504;11.548;2022-07-24T21:05:51;4.95;;;3.42;;
64598;SDS011;51008;51.504;11.548;2022-07-24T21:10:52;9.48;;;3.38;;
64598;SDS011;51008;51.504;11.548;2022-07-24T21:15:53;6.00;;;3.50;;
64598;SDS011;51008;51.504;11.548;2022-07-24T21:20:54;4.88;;;3.00;;
64598;SDS011;51008;51.504;11.548;2022-07-24T21:25:55;5.90;;;3.30;;
64598;SDS011;51008;51.504;11.548;2022-07-24T21:30:56;6.15;;;3.28;;
64598;SDS011;51008;51.504;11.548;2022-07-24T21:35:57;5.75;;;3.65;;
64598;SDS011;51008;51.504;11.548;2022-07-24T21:40:58;5.30;;;2.90;;
64598;SDS011;51008;51.504;11.548;2022-07-24T21:45:59;8.15;;;3.42;;
64598;SDS011;51008;51.504;11.548;2022-07-24T21:51:00;5.07;;;3.17;;
64598;SDS011;51008;51.504;11.548;2022-07-24T21:56:01;5.50;;;3.47;;
64598;SDS011;51008;51.504;11.548;2022-07-24T22:01:02;7.72;;;3.10;;
64598;SDS011;51008;51.504;11.548;2022-07-24T22:06:03;5.75;;;3.47;;
64598;SDS011;51008;51.504;11.548;2022-07-24T22:11:04;9.27;;;4.07;;
64598;SDS011;51008;51.504;11.548;2022-07-24T22:16:05;5.97;;;3.55;;
64598;SDS011;51008;51.504;11.548;2022-07-24T22:21:06;4.65;;;3.25;;
64598;SDS011;51008;51.504;11.548;2022-07-24T22:26:07;5.57;;;3.55;;
64598;SDS011;51008;51.504;11.548;2022-07-24T22:31:08;8.23;;;3.45;;
64598;SDS011;51008;51.504;11.548;2022-07-24T22:36:09;7.35;;;3.85;;
64598;SDS011;51008;51.504;11.548;2022-07-24T22:41:12;5.88;;;3.83;;
64598;SDS011;51008;51.504;11.548;2022-07-24T22:46:13;7.95;;;5.13;;
64598;SDS011;51008;51.504;11.548;2022-07-24T22:51:14;6.47;;;4.30;;
64598;SDS011;51008;51.504;11.548;2022-07-24T22:56:16;7.72;;;4.25;;
64598;SDS011;51008;51.504;11.548;2022-07-24T23:01:17;8.48;;;4.55;;
64598;SDS011;51008;51.504;11.548;2022-07-24T23:06:18;9.82;;;5.40;;
64598;SDS011;51008;51.504;11.548;2022-07-24T23:11:19;8.13;;;4.18;;
64598;SDS011;51008;51.504;11.548;2022-07-24T23:16:20;10.73;;;4.00;;
64598;SDS011;51008;51.504;11.548;2022-07-24T23:21:20;5.57;;;4.00;;
64598;SDS011;51008;51.504;11.548;2022-07-24T23:26:21;8.00;;;3.78;;
64598;SDS011;51008;51.504;11.548;2022-07-24T23:31:22;7.18;;;3.85;;
64598;SDS011;51008;51.504;11.548;2022-07-24T23:36:23;6.93;;;4.28;;
64598;SDS011;51008;51.504;11.548;2022-07-24T23:41:24;6.63;;;4.20;;
64598;SDS011;51008;51.504;11.548;2022-07-24T23:46:25;8.30;;;3.88;;
64598;SDS011;51008;51.504;11.548;2022-07-24T23:51:26;8.75;;;4.35;;
64598;SDS011;51008;51.504;11.548;2022-07-24T23:56:27;5.10;;;3.85;;
